Latest Weather Observations for Norah Head

IDN60801

Issued at 3:35 pm EST Saturday 19 April 2014 (issued every 30 minutes, with the page automatically refreshed every 10 minutes)

About weather observations | Map of weather stations | Latest weather observations for NSW | Other Formats
Station Details ID: 061366 Name: NORAH HEAD AWS Lat: -33.28 Lon: 151.58 Height: 18.8 m
Data from the previous 72 hours. | See also: Recent months at Norah Head
Date/Time
EST
Temp
°C
App
Temp
°C
Dew
Point
Rel
Hum
%
Delta-T
°C
Wind Press
QNH
hPa
Press
MSL
hPa
Rain
since 9 am
mm
Dir
 
Spd
km/h
Gust
km/h
Spd
kts
Gust
kts
19/03:30pm 20.0 15.9 13.9 68 3.5 S 28 33 15 18 1014.4 - 0.0
19/03:00pm 19.7 15.8 13.2 66 3.7 SSE 26 33 14 18 1014.4 1014.3 0.0
19/02:30pm 20.4 16.9 13.4 64 4.0 S 24 30 13 16 1014.3 - 0.0
19/02:00pm 20.4 16.8 13.1 63 4.2 S 24 30 13 16 1014.3 1014.2 0.0
19/01:30pm 20.6 17.6 13.8 65 3.9 S 22 28 12 15 1014.5 - 0.0
19/01:00pm 20.6 17.2 13.8 65 3.9 S 24 32 13 17 1014.7 1014.6 0.0
19/12:30pm 21.3 18.1 14.2 64 4.1 S 24 30 13 16 1015.0 - 0.0
19/12:00pm 20.0 17.1 13.0 64 4.0 S 20 26 11 14 1015.4 1015.3 0.0
19/11:30am 21.1 18.8 14.0 64 4.1 S 19 26 10 14 1015.6 - 0.0
19/11:00am 20.3 18.2 13.5 65 3.9 S 17 26 9 14 1016.1 1016.0 0.0
19/10:30am 21.0 19.0 13.9 64 4.1 S 17 24 9 13 1016.3 - 0.0
19/10:00am 20.4 19.6 15.0 71 3.2 SSW 13 22 7 12 1016.4 1016.3 0.0
19/09:30am 20.2 19.3 14.8 71 3.2 SSW 13 19 7 10 1016.3 - 0.0
19/09:00am 19.9 18.6 14.7 72 3.0 SSW 15 24 8 13 1016.4 1016.3 0.0
19/08:30am 19.3 19.6 14.6 74 2.7 SW 6 11 3 6 1016.3 - 0.0
19/08:00am 18.4 17.7 13.3 72 2.9 SW 9 19 5 10 1016.1 1016.0 0.0
19/07:30am 17.6 16.5 13.1 75 2.5 W 11 17 6 9 1015.8 - 0.0
19/07:00am 16.8 14.8 12.7 77 2.3 WSW 15 19 8 10 1015.6 1015.5 0.0
19/06:30am 16.5 14.8 12.3 76 2.3 W 13 17 7 9 1015.3 - 0.0
19/06:00am 16.4 14.3 11.3 72 2.7 W 13 20 7 11 1015.0 1014.9 0.0
19/05:30am 16.6 14.1 11.1 70 3.0 W 15 19 8 10 1014.8 - 0.0
19/05:00am 16.6 14.3 10.5 67 3.2 W 13 19 7 10 1014.6 1014.5 0.0
19/04:30am 16.7 14.7 10.1 65 3.5 W 11 15 6 8 1014.5 - 0.0
19/04:00am 16.8 14.3 9.7 63 3.7 W 13 19 7 10 1014.3 1014.2 0.0
19/03:30am 16.6 14.6 10.2 66 3.4 W 11 15 6 8 1014.2 - 0.0
19/03:00am 16.9 14.8 9.6 62 3.8 W 11 17 6 9 1014.1 1014.0 0.0
19/02:30am 17.3 15.1 9.2 59 4.2 WSW 11 13 6 7 1014.2 - 0.0
19/02:00am 17.4 15.7 9.8 61 4.0 W 9 13 5 7 1014.0 1013.9 0.0
19/01:30am 17.2 16.0 10.3 64 3.7 W 7 11 4 6 1014.2 - 0.0
19/01:00am 17.2 15.5 9.9 62 3.8 W 9 15 5 8 1014.1 1014.0 0.0
19/12:30am 17.3 16.1 10.4 64 3.7 WNW 7 11 4 6 1014.0 - 0.0
19/12:00am 17.6 16.5 10.0 61 4.0 WNW 6 11 3 6 1013.7 1013.6 0.0
 
Date/Time
EST
Temp
°C
App
Temp
°C
Dew
Point
Rel
Hum
%
Delta-T
°C
Wind Press
QNH
hPa
Press
MSL
hPa
Rain
since 9 am
mm
Dir
 
Spd
km/h
Gust
km/h
Spd
kts
Gust
kts
18/11:30pm 17.5 16.5 11.1 66 3.5 NW 7 11 4 6 1013.6 - 0.0
18/11:00pm 17.7 16.7 11.0 65 3.6 WNW 7 15 4 8 1014.0 1013.9 0.0
18/10:30pm 17.8 16.9 11.4 66 3.5 WNW 7 15 4 8 1014.2 - 0.0
18/10:00pm 17.9 17.5 12.4 70 3.1 WNW 6 9 3 5 1014.3 1014.2 0.0
18/09:30pm 18.3 17.9 12.5 69 3.2 WNW 6 9 3 5 1014.4 - 0.0
18/09:00pm 18.7 18.5 12.9 69 3.3 WNW 6 9 3 5 1014.3 1014.2 0.0
18/08:30pm 19.7 18.8 11.2 58 4.7 W 7 11 4 6 1014.2 - 0.0
18/08:00pm 20.1 19.2 12.6 62 4.2 W 9 13 5 7 1014.0 1013.9 0.0
18/07:30pm 19.5 19.2 14.3 72 3.0 W 9 13 5 7 1013.8 - 0.0
18/07:00pm 20.3 20.9 15.3 73 3.0 N 6 6 3 3 1013.4 1013.3 0.0
18/06:30pm 19.8 20.0 14.6 72 3.0 NNE 7 9 4 5 1013.2 - 0.0
18/06:00pm 20.1 19.6 14.9 72 3.1 NNE 11 13 6 7 1012.8 1012.7 0.0
18/05:30pm 20.1 19.5 14.7 71 3.2 NE 11 13 6 7 1012.5 - 0.0
18/05:00pm 20.5 19.9 14.6 69 3.5 NE 11 13 6 7 1012.4 1012.3 0.0
18/04:30pm 21.4 20.7 14.3 64 4.1 NE 11 15 6 8 1012.3 - 0.0
18/04:00pm 22.2 22.2 14.1 60 4.7 NE 7 9 4 5 1012.3 1012.2 0.0
18/03:30pm 22.1 21.5 13.5 58 5.0 NE 9 11 5 6 1012.4 - 0.0
18/03:00pm 22.7 21.6 13.2 55 5.5 NE 11 15 6 8 1012.3 1012.2 0.0
18/02:30pm 22.7 22.2 12.6 53 5.8 E 7 9 4 5 1012.5 - 0.0
18/02:00pm 22.9 22.2 13.1 54 5.6 E 9 11 5 6 1012.7 1012.6 0.0
18/01:30pm 23.1 22.8 12.7 52 6.0 ESE 6 7 3 4 1013.0 - 0.0
18/01:00pm 23.9 24.7 13.7 53 6.0 E 2 6 1 3 1013.2 1013.1 0.0
18/12:30pm 23.5 23.9 12.5 50 6.3 W 2 9 1 5 1013.8 - 0.0
18/12:00pm 23.1 23.4 12.1 50 6.2 WNW 2 7 1 4 1014.4 1014.3 0.0
18/11:30am 22.5 22.5 11.3 49 6.2 WSW 2 9 1 5 1014.9 - 0.0
18/11:00am 22.1 22.5 12.4 54 5.5 WSW 2 6 1 3 1015.3 1015.2 0.0
18/10:30am 21.6 21.5 13.2 59 4.8 WNW 6 11 3 6 1015.6 - 0.0
18/10:00am 21.0 20.7 13.4 62 4.4 WNW 7 13 4 7 1015.9 1015.8 0.0
18/09:30am 20.0 19.8 13.5 66 3.7 W 7 19 4 10 1016.2 - 0.0
18/09:00am 19.2 19.1 13.4 69 3.3 WNW 6 13 3 7 1016.4 1016.3 0.0
18/08:30am 17.8 16.9 12.7 72 2.8 WNW 9 20 5 11 1016.6 - 0.0
18/08:00am 16.8 16.4 12.9 78 2.2 WNW 7 15 4 8 1016.6 1016.5 0.0
18/07:30am 15.7 14.7 12.3 80 1.9 WNW 9 17 5 9 1016.6 - 0.0
18/07:00am 14.8 13.3 11.9 83 1.6 WNW 11 19 6 10 1016.5 1016.4 0.0
18/06:30am 14.2 12.6 11.7 85 1.3 WNW 11 15 6 8 1016.4 - 0.0
18/06:00am 14.4 13.3 11.9 85 1.3 W 9 15 5 8 1016.4 1016.3 0.0
18/05:30am 14.5 13.0 12.0 85 1.4 W 11 15 6 8 1016.4 - 0.0
18/05:00am 14.4 13.0 12.1 86 1.2 WNW 11 17 6 9 1016.6 1016.5 0.0
18/04:30am 14.4 13.3 12.1 86 1.2 WNW 9 13 5 7 1016.6 - 0.0
18/04:00am 14.8 14.2 12.3 85 1.4 W 7 15 4 8 1016.8 1016.7 0.0
18/03:30am 14.9 14.0 12.6 86 1.3 WNW 9 15 5 8 1016.6 - 0.0
18/03:00am 15.0 13.8 12.7 86 1.3 W 11 17 6 9 1016.7 1016.6 0.0
18/02:30am 15.1 14.3 12.8 86 1.3 WNW 9 15 5 8 1016.8 - 0.0
18/02:00am 15.6 14.5 13.1 85 1.4 W 11 19 6 10 1017.0 1016.9 0.0
18/01:30am 15.9 15.0 13.6 86 1.3 W 11 19 6 10 1017.4 - 0.0
18/01:00am 16.0 15.4 13.5 85 1.4 W 9 17 5 9 1017.7 1017.6 0.0
18/12:30am 15.9 15.3 13.6 86 1.3 W 9 15 5 8 1017.9 - 0.0
18/12:00am 16.2 15.2 13.5 84 1.5 W 11 17 6 9 1018.0 1017.9 0.0
 
Date/Time
EST
Temp
°C
App
Temp
°C
Dew
Point
Rel
Hum
%
Delta-T
°C
Wind Press
QNH
hPa
Press
MSL
hPa
Rain
since 9 am
mm
Dir
 
Spd
km/h
Gust
km/h
Spd
kts
Gust
kts
17/11:30pm 16.5 15.2 13.6 83 1.6 W 13 19 7 10 1018.1 - 0.0
17/11:00pm 16.6 15.8 13.9 84 1.5 W 11 17 6 9 1018.4 1018.3 0.0
17/10:30pm 16.9 15.8 14.2 84 1.5 W 13 19 7 10 1018.6 - 0.0
17/10:00pm 17.6 17.1 13.9 79 2.1 W 9 17 5 9 1018.8 1018.7 0.0
17/09:30pm 20.3 17.8 13.5 65 3.9 S 19 26 10 14 1018.9 - 0.0
17/09:00pm 20.0 18.3 15.8 77 2.5 S 19 22 10 12 1018.7 1018.6 0.0
17/08:30pm 19.7 17.5 16.0 79 2.2 SSE 22 28 12 15 1018.7 - 0.0
17/08:00pm 20.1 18.5 15.1 73 2.9 S 17 24 9 13 1018.5 1018.4 0.0
17/07:30pm 20.2 17.2 14.8 71 3.2 S 24 30 13 16 1018.4 - 0.0
17/07:00pm 20.0 15.5 14.8 72 3.0 S 32 37 17 20 1018.3 1018.2 0.0
17/06:30pm 19.9 16.2 15.1 74 2.8 S 28 35 15 19 1018.2 - 0.0
17/06:00pm 20.0 16.8 15.4 75 2.7 S 26 33 14 18 1017.8 1017.7 0.0
17/05:30pm 19.8 16.1 15.0 74 2.8 S 28 33 15 18 1017.7 - 0.0
17/05:00pm 19.6 16.8 16.3 81 2.0 SSE 26 32 14 17 1017.6 1017.5 0.0
17/04:30pm 20.1 16.4 16.1 78 2.4 S 30 37 16 20 1017.4 - 0.0
17/04:00pm 20.1 17.4 15.5 75 2.7 S 24 32 13 17 1017.5 1017.4 0.0
17/03:30pm 20.6 17.4 15.2 71 3.2 S 26 32 14 17 1017.4 - 0.0
17/03:00pm 20.2 15.7 15.4 74 2.8 S 33 39 18 21 1017.3 1017.2 0.0
17/02:30pm 20.3 15.0 15.3 73 3.0 S 37 44 20 24 1017.5 - 0.0
17/02:00pm 21.1 16.6 15.0 68 3.6 S 32 41 17 22 1017.5 1017.4 0.0
17/01:30pm 21.0 16.5 15.5 71 3.3 S 33 41 18 22 1017.6 - 0.0
17/01:00pm 20.5 16.0 15.5 73 3.0 S 33 41 18 22 1017.8 1017.7 0.0
17/12:30pm 20.7 16.9 14.8 69 3.5 S 28 37 15 20 1018.2 - 0.0
17/12:00pm 20.3 17.7 13.7 66 3.8 SSW 20 30 11 16 1018.8 1018.7 0.0
17/11:30am 20.5 16.9 14.2 67 3.7 SSW 26 39 14 21 1019.0 - 0.0
17/11:00am 20.5 17.3 14.2 67 3.6 SSW 24 33 13 18 1019.1 1019.0 0.0
17/10:30am 19.9 17.4 13.6 67 3.6 SSW 19 24 10 13 1019.3 - 0.0
17/10:00am 19.7 18.6 13.2 66 3.7 SSW 11 19 6 10 1019.3 1019.2 0.0
17/09:30am 19.3 18.0 12.6 65 3.8 SW 11 20 6 11 1019.4 - 0.0
17/09:00am 18.6 16.9 12.4 67 3.4 WSW 13 20 7 11 1019.3 1019.2 1.6
17/08:30am 17.8 16.5 12.5 71 2.9 WSW 11 20 6 11 1019.1 - 1.6
17/08:00am 16.6 14.8 12.0 74 2.5 W 13 20 7 11 1018.8 1018.7 1.6
17/07:30am 15.8 14.3 11.8 77 2.2 W 11 20 6 11 1018.7 - 1.6
17/07:00am 14.9 13.2 11.3 79 1.9 W 11 19 6 10 1018.4 1018.3 1.6
17/06:30am 14.9 13.2 11.3 79 1.9 W 11 20 6 11 1018.1 - 1.6
17/06:00am 14.6 13.0 11.6 82 1.6 W 11 19 6 10 1017.8 1017.7 1.6
17/05:30am 14.8 13.2 11.6 81 1.7 W 11 17 6 9 1017.7 - 1.6
17/05:00am 14.8 12.8 11.6 81 1.7 W 13 19 7 10 1017.7 1017.6 1.6
17/04:30am 14.7 12.7 11.5 81 1.7 W 13 22 7 12 1017.3 - 1.6
17/04:00am 14.8 12.9 11.8 82 1.6 W 13 20 7 11 1017.2 1017.1 1.6
17/03:30am 15.1 13.3 12.1 82 1.6 W 13 20 7 11 1017.1 - 1.6
17/03:00am 15.2 13.4 12.0 81 1.7 W 13 20 7 11 1017.0 1016.9 1.6
17/02:30am 15.2 13.1 12.3 83 1.6 W 15 20 8 11 1017.0 - 1.6
17/02:00am 15.2 13.6 12.7 85 1.4 W 13 19 7 10 1017.4 1017.3 1.6
17/01:30am 15.3 13.8 13.0 86 1.3 W 13 20 7 11 1017.6 - 1.6
17/01:00am 15.4 13.9 13.2 87 1.2 W 13 22 7 12 1017.9 1017.8 1.6
17/12:30am 15.6 14.2 13.4 87 1.2 W 13 19 7 10 1018.2 - 1.6
17/12:00am 15.8 14.1 13.6 87 1.2 W 15 20 8 11 1018.1 1018.0 1.6
 
Date/Time
EST
Temp
°C
App
Temp
°C
Dew
Point
Rel
Hum
%
Delta-T
°C
Wind Press
QNH
hPa
Press
MSL
hPa
Rain
since 9 am
mm
Dir
 
Spd
km/h
Gust
km/h
Spd
kts
Gust
kts
16/11:30pm 15.8 14.2 14.0 89 1.0 W 15 19 8 10 1018.1 - 1.6
16/11:00pm 15.9 14.7 14.1 89 1.0 W 13 17 7 9 1018.2 1018.1 1.6
16/10:30pm 16.2 15.5 14.2 88 1.1 W 11 17 6 9 1018.3 - 1.6
16/10:00pm 16.6 15.9 14.4 87 1.3 W 11 15 6 8 1018.5 1018.4 1.6
16/09:30pm 18.1 17.0 15.4 84 1.6 SW 15 24 8 13 1018.7 - 1.2
16/09:00pm 17.5 17.1 14.2 81 1.9 W 9 15 5 8 1018.6 1018.5 0.0
16/08:30pm 19.1 18.6 13.7 71 3.1 WSW 9 17 5 9 1018.3 - 0.0
16/08:00pm 20.4 17.4 15.8 75 2.7 S 26 33 14 18 1018.0 1017.9 0.0
16/07:30pm 20.0 16.4 15.2 74 2.8 S 28 37 15 20 1017.8 - 0.0
16/07:00pm 20.0 16.0 15.2 74 2.8 S 30 41 16 22 1017.6 1017.5 0.0
16/06:30pm 20.0 16.2 14.8 72 3.0 S 28 39 15 21 1017.7 - 0.0
16/06:00pm 19.8 14.3 14.8 73 2.9 S 37 48 20 26 1017.1 1017.0 0.0
16/05:30pm 20.2 15.9 15.4 74 2.8 S 32 44 17 24 1017.0 - 0.0
16/05:00pm 20.1 16.1 15.3 74 2.8 S 30 41 16 22 1017.0 1016.9 0.0
16/04:30pm 20.4 16.9 15.6 74 2.9 S 28 43 15 23 1016.8 - 0.0
16/04:00pm 20.4 16.5 15.4 73 3.0 S 30 39 16 21 1016.7 1016.6 0.0

Other Formats:

Comma delimited format used in spreadsheet applications
http://www.bom.gov.au/fwo/IDN60801/IDN60801.95770.axf

JavaScript Object Notation format (JSON) in row-major order
http://www.bom.gov.au/fwo/IDN60801/IDN60801.95770.json